sensor_id;sensor_type;location;lat;lon;timestamp;temperature;humidity
8402;DHT22;4238;48.404;9.498;2022-11-24T00:01:30;5.30;99.90
8402;DHT22;4238;48.404;9.498;2022-11-24T00:03:58;5.20;99.90
8402;DHT22;4238;48.404;9.498;2022-11-24T00:06:28;5.20;99.90
8402;DHT22;4238;48.404;9.498;2022-11-24T00:08:55;5.20;99.90
8402;DHT22;4238;48.404;9.498;2022-11-24T00:11:24;5.20;99.90
8402;DHT22;4238;48.404;9.498;2022-11-24T00:13:51;5.10;99.90
8402;DHT22;4238;48.404;9.498;2022-11-24T00:16:20;5.10;99.90
8402;DHT22;4238;48.404;9.498;2022-11-24T00:18:49;5.10;99.90
8402;DHT22;4238;48.404;9.498;2022-11-24T00:21:18;5.10;99.90
8402;DHT22;4238;48.404;9.498;2022-11-24T00:23:47;5.00;99.90
8402;DHT22;4238;48.404;9.498;2022-11-24T00:26:15;5.00;99.90
8402;DHT22;4238;48.404;9.498;2022-11-24T00:28:45;5.00;99.90
8402;DHT22;4238;48.404;9.498;2022-11-24T00:31:16;4.90;99.90
8402;DHT22;4238;48.404;9.498;2022-11-24T00:33:45;4.90;99.90
8402;DHT22;4238;48.404;9.498;2022-11-24T00:36:12;4.90;99.90
8402;DHT22;4238;48.404;9.498;2022-11-24T00:38:39;4.90;99.90
8402;DHT22;4238;48.404;9.498;2022-11-24T00:41:08;4.80;99.90
8402;DHT22;4238;48.404;9.498;2022-11-24T00:43:34;4.90;99.90
8402;DHT22;4238;48.404;9.498;2022-11-24T00:46:01;4.90;99.90
8402;DHT22;4238;48.404;9.498;2022-11-24T00:48:29;4.80;99.90
8402;DHT22;4238;48.404;9.498;2022-11-24T00:50:58;4.80;99.90
8402;DHT22;4238;48.404;9.498;2022-11-24T00:53:26;4.80;99.90
8402;DHT22;4238;48.404;9.498;2022-11-24T00:55:53;4.70;99.90
8402;DHT22;4238;48.404;9.498;2022-11-24T00:58:22;4.60;99.90
8402;DHT22;4238;48.404;9.498;2022-11-24T01:00:50;4.50;99.90
8402;DHT22;4238;48.404;9.498;2022-11-24T01:03:18;4.50;99.90
8402;DHT22;4238;48.404;9.498;2022-11-24T01:05:45;4.50;99.90
8402;DHT22;4238;48.404;9.498;2022-11-24T01:08:12;4.50;99.90
8402;DHT22;4238;48.404;9.498;2022-11-24T01:10:39;4.50;99.90
8402;DHT22;4238;48.404;9.498;2022-11-24T01:13:06;4.60;99.90
8402;DHT22;4238;48.404;9.498;2022-11-24T01:15:35;4.50;99.90
8402;DHT22;4238;48.404;9.498;2022-11-24T01:18:02;4.30;99.90
8402;DHT22;4238;48.404;9.498;2022-11-24T01:20:30;4.10;99.90
8402;DHT22;4238;48.404;9.498;2022-11-24T01:22:57;4.00;99.90
8402;DHT22;4238;48.404;9.498;2022-11-24T01:25:24;3.90;99.90
8402;DHT22;4238;48.404;9.498;2022-11-24T01:27:51;3.90;99.90
8402;DHT22;4238;48.404;9.498;2022-11-24T01:30:18;3.90;99.90
8402;DHT22;4238;48.404;9.498;2022-11-24T01:32:47;4.00;99.90
8402;DHT22;4238;48.404;9.498;2022-11-24T01:35:15;4.10;99.90
8402;DHT22;4238;48.404;9.498;2022-11-24T01:37:41;4.10;99.90
8402;DHT22;4238;48.404;9.498;2022-11-24T01:40:09;3.90;99.90
8402;DHT22;4238;48.404;9.498;2022-11-24T01:42:42;4.00;99.90
8402;DHT22;4238;48.404;9.498;2022-11-24T01:45:30;3.90;99.90
8402;DHT22;4238;48.404;9.498;2022-11-24T01:48:01;4.10;99.90
8402;DHT22;4238;48.404;9.498;2022-11-24T01:50:30;4.20;99.90
8402;DHT22;4238;48.404;9.498;2022-11-24T01:52:58;4.40;99.90
8402;DHT22;4238;48.404;9.498;2022-11-24T01:55:29;4.50;99.90
8402;DHT22;4238;48.404;9.498;2022-11-24T01:58:02;4.60;99.90
8402;DHT22;4238;48.404;9.498;2022-11-24T02:00:30;4.60;99.90
8402;DHT22;4238;48.404;9.498;2022-11-24T02:02:59;4.70;99.90
8402;DHT22;4238;48.404;9.498;2022-11-24T02:05:29;4.70;99.90
8402;DHT22;4238;48.404;9.498;2022-11-24T02:08:00;4.70;99.90
8402;DHT22;4238;48.404;9.498;2022-11-24T02:10:28;4.80;99.90
8402;DHT22;4238;48.404;9.498;2022-11-24T02:12:56;4.80;99.90
8402;DHT22;4238;48.404;9.498;2022-11-24T02:15:24;4.80;99.90
8402;DHT22;4238;48.404;9.498;2022-11-24T02:17:51;4.90;99.90
8402;DHT22;4238;48.404;9.498;2022-11-24T02:20:20;4.90;99.90
8402;DHT22;4238;48.404;9.498;2022-11-24T02:22:51;4.90;99.90
8402;DHT22;4238;48.404;9.498;2022-11-24T02:25:28;4.90;99.90
8402;DHT22;4238;48.404;9.498;2022-11-24T02:27:59;4.80;99.90
8402;DHT22;4238;48.404;9.498;2022-11-24T02:30:27;4.60;99.90
8402;DHT22;4238;48.404;9.498;2022-11-24T02:32:54;4.50;99.90
8402;DHT22;4238;48.404;9.498;2022-11-24T02:35:24;4.40;99.90
8402;DHT22;4238;48.404;9.498;2022-11-24T02:37:51;4.40;99.90
8402;DHT22;4238;48.404;9.498;2022-11-24T02:40:22;4.60;99.90
8402;DHT22;4238;48.404;9.498;2022-11-24T02:42:52;4.70;99.90
8402;DHT22;4238;48.404;9.498;2022-11-24T02:45:22;4.50;99.90
8402;DHT22;4238;48.404;9.498;2022-11-24T02:47:49;4.40;99.90
8402;DHT22;4238;48.404;9.498;2022-11-24T02:50:16;4.40;99.90
8402;DHT22;4238;48.404;9.498;2022-11-24T02:52:43;4.20;99.90
8402;DHT22;4238;48.404;9.498;2022-11-24T02:55:10;4.10;99.90
8402;DHT22;4238;48.404;9.498;2022-11-24T02:57:37;4.20;99.90
8402;DHT22;4238;48.404;9.498;2022-11-24T03:00:05;4.20;99.90
8402;DHT22;4238;48.404;9.498;2022-11-24T03:02:33;4.00;99.90
8402;DHT22;4238;48.404;9.498;2022-11-24T03:05:00;4.00;99.90
8402;DHT22;4238;48.404;9.498;2022-11-24T03:07:27;4.10;99.90
8402;DHT22;4238;48.404;9.498;2022-11-24T03:09:54;4.00;99.90
8402;DHT22;4238;48.404;9.498;2022-11-24T03:12:20;4.10;99.90
8402;DHT22;4238;48.404;9.498;2022-11-24T03:14:47;4.10;99.90
8402;DHT22;4238;48.404;9.498;2022-11-24T03:17:14;3.90;99.90
8402;DHT22;4238;48.404;9.498;2022-11-24T03:19:42;3.80;99.90
8402;DHT22;4238;48.404;9.498;2022-11-24T03:22:11;3.90;99.90
8402;DHT22;4238;48.404;9.498;2022-11-24T03:24:38;3.80;99.90
8402;DHT22;4238;48.404;9.498;2022-11-24T03:27:05;3.60;99.90
8402;DHT22;4238;48.404;9.498;2022-11-24T03:29:32;3.50;99.90
8402;DHT22;4238;48.404;9.498;2022-11-24T03:31:59;3.20;99.90
8402;DHT22;4238;48.404;9.498;2022-11-24T03:34:26;3.00;99.90
8402;DHT22;4238;48.404;9.498;2022-11-24T03:36:54;2.90;99.90
8402;DHT22;4238;48.404;9.498;2022-11-24T03:39:21;2.80;99.90
8402;DHT22;4238;48.404;9.498;2022-11-24T03:41:48;2.70;99.90
8402;DHT22;4238;48.404;9.498;2022-11-24T03:44:16;2.60;99.90
8402;DHT22;4238;48.404;9.498;2022-11-24T03:46:43;2.50;99.90
8402;DHT22;4238;48.404;9.498;2022-11-24T03:49:10;2.60;99.90
8402;DHT22;4238;48.404;9.498;2022-11-24T03:51:37;2.50;99.90
8402;DHT22;4238;48.404;9.498;2022-11-24T03:54:05;2.60;99.90
8402;DHT22;4238;48.404;9.498;2022-11-24T03:56:32;2.60;99.90
8402;DHT22;4238;48.404;9.498;2022-11-24T03:59:00;2.60;99.90
8402;DHT22;4238;48.404;9.498;2022-11-24T04:01:27;2.70;99.90
8402;DHT22;4238;48.404;9.498;2022-11-24T04:03:53;2.70;99.90
8402;DHT22;4238;48.404;9.498;2022-11-24T04:06:22;2.60;99.90
8402;DHT22;4238;48.404;9.498;2022-11-24T04:08:49;2.60;99.90
8402;DHT22;4238;48.404;9.498;2022-11-24T04:11:18;2.60;99.90
8402;DHT22;4238;48.404;9.498;2022-11-24T04:14:02;2.80;99.90
8402;DHT22;4238;48.404;9.498;2022-11-24T04:16:29;2.80;99.90
8402;DHT22;4238;48.404;9.498;2022-11-24T04:18:56;2.80;99.90
8402;DHT22;4238;48.404;9.498;2022-11-24T04:21:23;3.00;99.90
8402;DHT22;4238;48.404;9.498;2022-11-24T04:23:50;3.20;99.90
8402;DHT22;4238;48.404;9.498;2022-11-24T04:26:18;3.20;99.90
8402;DHT22;4238;48.404;9.498;2022-11-24T04:28:45;3.30;99.90
8402;DHT22;4238;48.404;9.498;2022-11-24T04:31:12;3.40;99.90
8402;DHT22;4238;48.404;9.498;2022-11-24T04:33:39;3.40;99.90
8402;DHT22;4238;48.404;9.498;2022-11-24T04:36:06;3.50;99.90
8402;DHT22;4238;48.404;9.498;2022-11-24T04:38:33;3.50;99.90
8402;DHT22;4238;48.404;9.498;2022-11-24T04:41:00;3.40;99.90
8402;DHT22;4238;48.404;9.498;2022-11-24T04:43:29;3.40;99.90
8402;DHT22;4238;48.404;9.498;2022-11-24T04:45:59;3.30;99.90
8402;DHT22;4238;48.404;9.498;2022-11-24T04:48:26;3.30;99.90
8402;DHT22;4238;48.404;9.498;2022-11-24T04:50:53;3.30;99.90
8402;DHT22;4238;48.404;9.498;2022-11-24T04:53:20;3.30;99.90
8402;DHT22;4238;48.404;9.498;2022-11-24T04:55:47;3.30;99.90
8402;DHT22;4238;48.404;9.498;2022-11-24T04:58:14;3.30;99.90
8402;DHT22;4238;48.404;9.498;2022-11-24T05:00:42;3.20;99.90
8402;DHT22;4238;48.404;9.498;2022-11-24T05:03:09;3.30;99.90
8402;DHT22;4238;48.404;9.498;2022-11-24T05:05:36;3.30;99.90
8402;DHT22;4238;48.404;9.498;2022-11-24T05:08:03;3.40;99.90
8402;DHT22;4238;48.404;9.498;2022-11-24T05:10:30;3.50;99.90
8402;DHT22;4238;48.404;9.498;2022-11-24T05:13:04;3.30;99.90
8402;DHT22;4238;48.404;9.498;2022-11-24T05:15:32;3.30;99.90
8402;DHT22;4238;48.404;9.498;2022-11-24T05:18:03;3.40;99.90
8402;DHT22;4238;48.404;9.498;2022-11-24T05:20:31;3.30;99.90
8402;DHT22;4238;48.404;9.498;2022-11-24T05:23:00;3.10;99.90
8402;DHT22;4238;48.404;9.498;2022-11-24T05:25:28;3.10;99.90
8402;DHT22;4238;48.404;9.498;2022-11-24T05:27:58;3.00;99.90
8402;DHT22;4238;48.404;9.498;2022-11-24T05:30:25;2.90;99.90
8402;DHT22;4238;48.404;9.498;2022-11-24T05:32:52;2.90;99.90
8402;DHT22;4238;48.404;9.498;2022-11-24T05:35:21;3.00;99.90
8402;DHT22;4238;48.404;9.498;2022-11-24T05:37:48;2.90;99.90
8402;DHT22;4238;48.404;9.498;2022-11-24T05:40:15;2.90;99.90
8402;DHT22;4238;48.404;9.498;2022-11-24T05:42:42;3.00;99.90
8402;DHT22;4238;48.404;9.498;2022-11-24T05:45:11;3.10;99.90
8402;DHT22;4238;48.404;9.498;2022-11-24T05:47:39;3.20;99.90
8402;DHT22;4238;48.404;9.498;2022-11-24T05:50:08;3.20;99.90
8402;DHT22;4238;48.404;9.498;2022-11-24T05:52:37;3.30;99.90
8402;DHT22;4238;48.404;9.498;2022-11-24T05:55:05;3.30;99.90
8402;DHT22;4238;48.404;9.498;2022-11-24T05:57:33;3.40;99.90
8402;DHT22;4238;48.404;9.498;2022-11-24T06:00:00;3.50;99.90
8402;DHT22;4238;48.404;9.498;2022-11-24T06:02:28;3.50;99.90
8402;DHT22;4238;48.404;9.498;2022-11-24T06:04:55;3.50;99.90
8402;DHT22;4238;48.404;9.498;2022-11-24T06:07:22;3.50;99.90
8402;DHT22;4238;48.404;9.498;2022-11-24T06:09:50;3.60;99.90
8402;DHT22;4238;48.404;9.498;2022-11-24T06:12:17;3.70;99.90
8402;DHT22;4238;48.404;9.498;2022-11-24T06:14:44;3.70;99.90
8402;DHT22;4238;48.404;9.498;2022-11-24T06:17:11;3.70;99.90
8402;DHT22;4238;48.404;9.498;2022-11-24T06:19:38;3.70;99.90
8402;DHT22;4238;48.404;9.498;2022-11-24T06:22:06;3.70;99.90
8402;DHT22;4238;48.404;9.498;2022-11-24T06:24:33;3.80;99.90
8402;DHT22;4238;48.404;9.498;2022-11-24T06:27:01;3.80;99.90
8402;DHT22;4238;48.404;9.498;2022-11-24T06:29:28;3.90;99.90
8402;DHT22;4238;48.404;9.498;2022-11-24T06:31:55;3.90;99.90
8402;DHT22;4238;48.404;9.498;2022-11-24T06:34:23;3.90;99.90
8402;DHT22;4238;48.404;9.498;2022-11-24T06:36:50;4.00;99.90
8402;DHT22;4238;48.404;9.498;2022-11-24T06:39:17;4.00;99.90
8402;DHT22;4238;48.404;9.498;2022-11-24T06:41:44;4.10;99.90
8402;DHT22;4238;48.404;9.498;2022-11-24T06:44:12;4.20;99.90
8402;DHT22;4238;48.404;9.498;2022-11-24T06:46:39;4.10;99.90
8402;DHT22;4238;48.404;9.498;2022-11-24T06:49:06;4.10;99.90
8402;DHT22;4238;48.404;9.498;2022-11-24T06:51:33;4.10;99.90
8402;DHT22;4238;48.404;9.498;2022-11-24T06:54:00;4.20;99.90
8402;DHT22;4238;48.404;9.498;2022-11-24T06:56:28;4.30;99.90
8402;DHT22;4238;48.404;9.498;2022-11-24T06:58:55;4.30;99.90
8402;DHT22;4238;48.404;9.498;2022-11-24T07:01:25;4.30;99.90
8402;DHT22;4238;48.404;9.498;2022-11-24T07:03:53;4.30;99.90
8402;DHT22;4238;48.404;9.498;2022-11-24T07:06:22;4.40;99.90
8402;DHT22;4238;48.404;9.498;2022-11-24T07:08:49;4.50;99.90
8402;DHT22;4238;48.404;9.498;2022-11-24T07:11:18;4.40;99.90
8402;DHT22;4238;48.404;9.498;2022-11-24T07:13:46;4.50;99.90
8402;DHT22;4238;48.404;9.498;2022-11-24T07:16:14;4.50;99.90
8402;DHT22;4238;48.404;9.498;2022-11-24T07:18:43;4.60;99.90
8402;DHT22;4238;48.404;9.498;2022-11-24T07:21:10;4.70;99.90
8402;DHT22;4238;48.404;9.498;2022-11-24T07:23:38;4.70;99.90
8402;DHT22;4238;48.404;9.498;2022-11-24T07:26:06;4.80;99.90
8402;DHT22;4238;48.404;9.498;2022-11-24T07:28:33;4.80;99.90
8402;DHT22;4238;48.404;9.498;2022-11-24T07:31:04;4.90;99.90
8402;DHT22;4238;48.404;9.498;2022-11-24T07:33:31;4.90;99.90
8402;DHT22;4238;48.404;9.498;2022-11-24T07:36:00;4.80;99.90
8402;DHT22;4238;48.404;9.498;2022-11-24T07:38:28;4.80;99.90
8402;DHT22;4238;48.404;9.498;2022-11-24T07:40:59;4.70;99.90
8402;DHT22;4238;48.404;9.498;2022-11-24T07:43:29;4.80;99.90
8402;DHT22;4238;48.404;9.498;2022-11-24T07:45:56;4.80;99.90
8402;DHT22;4238;48.404;9.498;2022-11-24T07:48:23;4.80;99.90
8402;DHT22;4238;48.404;9.498;2022-11-24T07:50:50;4.80;99.90
8402;DHT22;4238;48.404;9.498;2022-11-24T07:53:18;4.80;99.90
8402;DHT22;4238;48.404;9.498;2022-11-24T07:55:52;4.90;99.90
8402;DHT22;4238;48.404;9.498;2022-11-24T07:58:20;5.00;99.90
8402;DHT22;4238;48.404;9.498;2022-11-24T08:00:47;5.00;99.90
8402;DHT22;4238;48.404;9.498;2022-11-24T08:03:14;5.00;99.90
8402;DHT22;4238;48.404;9.498;2022-11-24T08:05:41;5.00;99.90
8402;DHT22;4238;48.404;9.498;2022-11-24T08:08:08;5.00;99.90
8402;DHT22;4238;48.404;9.498;2022-11-24T08:10:36;5.00;99.90
8402;DHT22;4238;48.404;9.498;2022-11-24T08:13:03;5.00;99.90
8402;DHT22;4238;48.404;9.498;2022-11-24T08:15:30;5.00;99.90
8402;DHT22;4238;48.404;9.498;2022-11-24T08:18:00;5.10;99.90
8402;DHT22;4238;48.404;9.498;2022-11-24T08:20:27;5.10;99.90
8402;DHT22;4238;48.404;9.498;2022-11-24T08:22:56;5.20;99.90
8402;DHT22;4238;48.404;9.498;2022-11-24T08:25:23;5.10;99.90
8402;DHT22;4238;48.404;9.498;2022-11-24T08:27:57;5.20;99.90
8402;DHT22;4238;48.404;9.498;2022-11-24T08:30:24;5.20;99.90
8402;DHT22;4238;48.404;9.498;2022-11-24T08:32:51;5.20;99.90
8402;DHT22;4238;48.404;9.498;2022-11-24T08:35:18;5.20;99.90
8402;DHT22;4238;48.404;9.498;2022-11-24T08:37:45;5.20;99.90
8402;DHT22;4238;48.404;9.498;2022-11-24T08:40:12;5.20;99.90
8402;DHT22;4238;48.404;9.498;2022-11-24T08:42:39;5.30;99.90
8402;DHT22;4238;48.404;9.498;2022-11-24T08:45:08;5.20;99.90
8402;DHT22;4238;48.404;9.498;2022-11-24T08:47:35;5.20;99.90
8402;DHT22;4238;48.404;9.498;2022-11-24T08:50:03;5.20;99.90
8402;DHT22;4238;48.404;9.498;2022-11-24T08:52:30;5.20;99.90
8402;DHT22;4238;48.404;9.498;2022-11-24T08:54:57;5.20;99.90
8402;DHT22;4238;48.404;9.498;2022-11-24T08:57:24;5.30;99.90
8402;DHT22;4238;48.404;9.498;2022-11-24T08:59:51;5.30;99.90
8402;DHT22;4238;48.404;9.498;2022-11-24T09:02:19;5.30;99.90
8402;DHT22;4238;48.404;9.498;2022-11-24T09:04:46;5.30;99.90
8402;DHT22;4238;48.404;9.498;2022-11-24T09:07:13;5.30;99.90
8402;DHT22;4238;48.404;9.498;2022-11-24T09:09:40;5.30;99.90
8402;DHT22;4238;48.404;9.498;2022-11-24T09:12:08;5.30;99.90
8402;DHT22;4238;48.404;9.498;2022-11-24T09:14:35;5.30;99.90
8402;DHT22;4238;48.404;9.498;2022-11-24T09:17:02;5.40;99.90
8402;DHT22;4238;48.404;9.498;2022-11-24T09:19:30;5.30;99.90
8402;DHT22;4238;48.404;9.498;2022-11-24T09:21:57;5.40;99.90
8402;DHT22;4238;48.404;9.498;2022-11-24T09:24:24;5.40;99.90
8402;DHT22;4238;48.404;9.498;2022-11-24T09:26:52;5.40;99.90
8402;DHT22;4238;48.404;9.498;2022-11-24T09:29:20;5.50;99.90
8402;DHT22;4238;48.404;9.498;2022-11-24T09:31:47;5.50;99.90
8402;DHT22;4238;48.404;9.498;2022-11-24T09:34:15;5.80;99.90
8402;DHT22;4238;48.404;9.498;2022-11-24T09:36:43;5.90;99.90
8402;DHT22;4238;48.404;9.498;2022-11-24T09:39:10;5.90;99.90
8402;DHT22;4238;48.404;9.498;2022-11-24T09:41:53;5.90;99.90
8402;DHT22;4238;48.404;9.498;2022-11-24T09:45:01;5.90;99.90
8402;DHT22;4238;48.404;9.498;2022-11-24T09:47:46;5.90;99.90
8402;DHT22;4238;48.404;9.498;2022-11-24T09:50:17;5.90;99.90
8402;DHT22;4238;48.404;9.498;2022-11-24T09:52:50;5.80;99.90
8402;DHT22;4238;48.404;9.498;2022-11-24T09:55:27;5.80;99.90
8402;DHT22;4238;48.404;9.498;2022-11-24T09:58:02;5.80;99.90
8402;DHT22;4238;48.404;9.498;2022-11-24T10:00:32;6.00;99.90
8402;DHT22;4238;48.404;9.498;2022-11-24T10:02:59;6.10;99.90
8402;DHT22;4238;48.404;9.498;2022-11-24T10:05:28;6.40;99.90
8402;DHT22;4238;48.404;9.498;2022-11-24T10:08:07;6.60;99.90
8402;DHT22;4238;48.404;9.498;2022-11-24T10:10:42;6.60;99.90
8402;DHT22;4238;48.404;9.498;2022-11-24T10:13:24;6.60;99.90
8402;DHT22;4238;48.404;9.498;2022-11-24T10:15:57;6.50;99.90
8402;DHT22;4238;48.404;9.498;2022-11-24T10:18:44;6.40;99.90
8402;DHT22;4238;48.404;9.498;2022-11-24T10:21:27;6.30;99.90
8402;DHT22;4238;48.404;9.498;2022-11-24T10:26:50;6.70;99.90
8402;DHT22;4238;48.404;9.498;2022-11-24T10:29:27;6.80;99.90
8402;DHT22;4238;48.404;9.498;2022-11-24T10:31:55;6.90;99.90
8402;DHT22;4238;48.404;9.498;2022-11-24T10:34:27;7.10;99.90
8402;DHT22;4238;48.404;9.498;2022-11-24T10:36:59;7.60;99.90
8402;DHT22;4238;48.404;9.498;2022-11-24T10:39:33;8.10;99.90
8402;DHT22;4238;48.404;9.498;2022-11-24T10:42:06;8.70;94.80
8402;DHT22;4238;48.404;9.498;2022-11-24T10:44:38;9.00;71.50
8402;DHT22;4238;48.404;9.498;2022-11-24T10:47:16;8.90;52.20
8402;DHT22;4238;48.404;9.498;2022-11-24T10:49:50;9.20;39.40
8402;DHT22;4238;48.404;9.498;2022-11-24T10:52:22;9.20;25.10
8402;DHT22;4238;48.404;9.498;2022-11-24T10:54:57;9.50;20.40
8402;DHT22;4238;48.404;9.498;2022-11-24T10:57:31;9.50;15.00
8402;DHT22;4238;48.404;9.498;2022-11-24T10:59:58;9.70;11.60
8402;DHT22;4238;48.404;9.498;2022-11-24T11:02:36;9.70;1.00
8402;DHT22;4238;48.404;9.498;2022-11-24T11:05:35;9.50;16.50
8402;DHT22;4238;48.404;9.498;2022-11-24T11:08:15;9.90;24.70
8402;DHT22;4238;48.404;9.498;2022-11-24T11:10:47;10.00;7.50
8402;DHT22;4238;48.404;9.498;2022-11-24T11:13:25;10.20;1.80
8402;DHT22;4238;48.404;9.498;2022-11-24T11:15:52;10.30;1.00
8402;DHT22;4238;48.404;9.498;2022-11-24T11:18:20;10.20;1.00
8402;DHT22;4238;48.404;9.498;2022-11-24T11:20:52;10.20;1.00
8402;DHT22;4238;48.404;9.498;2022-11-24T11:23:24;10.10;1.00
8402;DHT22;4238;48.404;9.498;2022-11-24T11:26:17;9.60;1.00
8402;DHT22;4238;48.404;9.498;2022-11-24T11:28:57;9.10;1.00
8402;DHT22;4238;48.404;9.498;2022-11-24T11:31:25;8.80;13.80
8402;DHT22;4238;48.404;9.498;2022-11-24T11:33:58;8.70;36.80
8402;DHT22;4238;48.404;9.498;2022-11-24T11:36:26;9.00;14.20
8402;DHT22;4238;48.404;9.498;2022-11-24T11:38:53;9.40;10.20
8402;DHT22;4238;48.404;9.498;2022-11-24T11:41:26;9.80;1.00
8402;DHT22;4238;48.404;9.498;2022-11-24T11:44:12;10.30;1.00
8402;DHT22;4238;48.404;9.498;2022-11-24T11:46:42;10.60;1.00
8402;DHT22;4238;48.404;9.498;2022-11-24T11:49:10;10.90;1.00
8402;DHT22;4238;48.404;9.498;2022-11-24T11:51:47;11.10;1.00
8402;DHT22;4238;48.404;9.498;2022-11-24T11:54:28;11.00;1.00
8402;DHT22;4238;48.404;9.498;2022-11-24T11:57:06;11.20;1.00
8402;DHT22;4238;48.404;9.498;2022-11-24T11:59:53;11.30;1.00
8402;DHT22;4238;48.404;9.498;2022-11-24T12:02:58;11.30;99.90
8402;DHT22;4238;48.404;9.498;2022-11-24T12:05:33;11.40;1.00
8402;DHT22;4238;48.404;9.498;2022-11-24T12:08:16;11.50;1.00
8402;DHT22;4238;48.404;9.498;2022-11-24T12:10:49;11.50;1.00
8402;DHT22;4238;48.404;9.498;2022-11-24T12:13:39;11.20;99.90
8402;DHT22;4238;48.404;9.498;2022-11-24T12:16:19;11.30;1.00
8402;DHT22;4238;48.404;9.498;2022-11-24T12:19:00;11.40;1.00
8402;DHT22;4238;48.404;9.498;2022-11-24T12:21:34;11.50;93.90
8402;DHT22;4238;48.404;9.498;2022-11-24T12:24:09;11.10;99.90
8402;DHT22;4238;48.404;9.498;2022-11-24T12:26:42;10.90;1.00
8402;DHT22;4238;48.404;9.498;2022-11-24T12:29:40;10.90;1.00
8402;DHT22;4238;48.404;9.498;2022-11-24T12:32:18;10.80;1.00
8402;DHT22;4238;48.404;9.498;2022-11-24T12:34:52;10.60;99.90
8402;DHT22;4238;48.404;9.498;2022-11-24T12:37:44;10.40;1.00
8402;DHT22;4238;48.404;9.498;2022-11-24T12:40:24;10.50;99.90
8402;DHT22;4238;48.404;9.498;2022-11-24T12:43:00;10.30;1.00
8402;DHT22;4238;48.404;9.498;2022-11-24T12:45:36;9.90;99.90
8402;DHT22;4238;48.404;9.498;2022-11-24T12:48:15;9.60;99.90
8402;DHT22;4238;48.404;9.498;2022-11-24T12:50:45;9.40;1.00
8402;DHT22;4238;48.404;9.498;2022-11-24T12:53:13;9.30;1.00
8402;DHT22;4238;48.404;9.498;2022-11-24T12:55:42;9.30;1.00
8402;DHT22;4238;48.404;9.498;2022-11-24T12:58:12;9.30;1.00
8402;DHT22;4238;48.404;9.498;2022-11-24T13:00:52;9.20;1.00
8402;DHT22;4238;48.404;9.498;2022-11-24T13:03:29;9.20;1.00
8402;DHT22;4238;48.404;9.498;2022-11-24T13:06:00;9.00;1.00
8402;DHT22;4238;48.404;9.498;2022-11-24T13:08:28;9.00;1.00
8402;DHT22;4238;48.404;9.498;2022-11-24T13:14:11;9.10;1.00
8402;DHT22;4238;48.404;9.498;2022-11-24T13:16:50;9.30;1.00
8402;DHT22;4238;48.404;9.498;2022-11-24T13:19:20;9.40;1.00
8402;DHT22;4238;48.404;9.498;2022-11-24T13:22:08;9.30;1.00
8402;DHT22;4238;48.404;9.498;2022-11-24T13:24:37;9.40;1.00
8402;DHT22;4238;48.404;9.498;2022-11-24T13:27:25;9.40;1.00
8402;DHT22;4238;48.404;9.498;2022-11-24T13:29:53;9.20;1.00
8402;DHT22;4238;48.404;9.498;2022-11-24T13:33:01;9.00;1.00
8402;DHT22;4238;48.404;9.498;2022-11-24T13:38:54;8.60;1.00
8402;DHT22;4238;48.404;9.498;2022-11-24T13:44:51;8.30;1.00
8402;DHT22;4238;48.404;9.498;2022-11-24T13:47:30;8.20;1.00
8402;DHT22;4238;48.404;9.498;2022-11-24T13:49:59;8.00;1.00
8402;DHT22;4238;48.404;9.498;2022-11-24T13:52:42;7.90;1.00
8402;DHT22;4238;48.404;9.498;2022-11-24T13:55:37;7.80;1.00
8402;DHT22;4238;48.404;9.498;2022-11-24T13:58:26;7.80;1.00
8402;DHT22;4238;48.404;9.498;2022-11-24T14:01:11;7.80;1.00
8402;DHT22;4238;48.404;9.498;2022-11-24T14:03:44;7.70;1.00
8402;DHT22;4238;48.404;9.498;2022-11-24T14:06:24;7.70;1.00
8402;DHT22;4238;48.404;9.498;2022-11-24T14:08:53;7.60;1.00
8402;DHT22;4238;48.404;9.498;2022-11-24T14:11:21;7.60;1.00
8402;DHT22;4238;48.404;9.498;2022-11-24T14:13:50;7.70;1.00
8402;DHT22;4238;48.404;9.498;2022-11-24T14:16:18;7.80;1.00
8402;DHT22;4238;48.404;9.498;2022-11-24T14:18:46;7.90;1.00
8402;DHT22;4238;48.404;9.498;2022-11-24T14:21:33;8.00;1.00
8402;DHT22;4238;48.404;9.498;2022-11-24T14:24:09;8.00;1.00
8402;DHT22;4238;48.404;9.498;2022-11-24T14:26:38;7.90;1.00
8402;DHT22;4238;48.404;9.498;2022-11-24T14:29:11;7.80;1.00
8402;DHT22;4238;48.404;9.498;2022-11-24T14:31:39;7.80;1.00
8402;DHT22;4238;48.404;9.498;2022-11-24T14:34:13;7.80;1.00
8402;DHT22;4238;48.404;9.498;2022-11-24T14:36:41;7.70;1.00
8402;DHT22;4238;48.404;9.498;2022-11-24T14:39:11;7.70;1.00
8402;DHT22;4238;48.404;9.498;2022-11-24T14:41:39;7.60;1.00
8402;DHT22;4238;48.404;9.498;2022-11-24T14:44:15;7.60;1.00
8402;DHT22;4238;48.404;9.498;2022-11-24T14:46:44;7.60;1.00
8402;DHT22;4238;48.404;9.498;2022-11-24T14:49:16;7.60;1.00
8402;DHT22;4238;48.404;9.498;2022-11-24T14:51:51;7.50;1.00
8402;DHT22;4238;48.404;9.498;2022-11-24T14:54:20;7.50;1.00
8402;DHT22;4238;48.404;9.498;2022-11-24T14:56:59;7.50;1.00
8402;DHT22;4238;48.404;9.498;2022-11-24T14:59:31;7.50;1.00
8402;DHT22;4238;48.404;9.498;2022-11-24T15:01:59;7.50;1.00
8402;DHT22;4238;48.404;9.498;2022-11-24T15:04:27;7.40;1.00
8402;DHT22;4238;48.404;9.498;2022-11-24T15:07:11;7.30;1.00
8402;DHT22;4238;48.404;9.498;2022-11-24T15:09:48;7.10;1.00
8402;DHT22;4238;48.404;9.498;2022-11-24T15:12:24;7.00;1.60
8402;DHT22;4238;48.404;9.498;2022-11-24T15:14:55;6.90;2.20
8402;DHT22;4238;48.404;9.498;2022-11-24T15:17:24;6.70;9.70
8402;DHT22;4238;48.404;9.498;2022-11-24T15:19:55;6.50;17.50
8402;DHT22;4238;48.404;9.498;2022-11-24T15:22:35;6.10;34.90
8402;DHT22;4238;48.404;9.498;2022-11-24T15:25:02;5.90;50.30
8402;DHT22;4238;48.404;9.498;2022-11-24T15:27:49;5.60;80.60
8402;DHT22;4238;48.404;9.498;2022-11-24T15:30:16;5.40;92.70
8402;DHT22;4238;48.404;9.498;2022-11-24T15:32:48;5.50;95.20
8402;DHT22;4238;48.404;9.498;2022-11-24T15:35:15;5.50;95.60
8402;DHT22;4238;48.404;9.498;2022-11-24T15:37:43;5.70;98.50
8402;DHT22;4238;48.404;9.498;2022-11-24T15:40:11;5.80;96.50
8402;DHT22;4238;48.404;9.498;2022-11-24T15:42:38;5.70;99.20
8402;DHT22;4238;48.404;9.498;2022-11-24T15:45:06;5.90;99.90
8402;DHT22;4238;48.404;9.498;2022-11-24T15:47:33;5.90;99.40
8402;DHT22;4238;48.404;9.498;2022-11-24T15:50:00;5.80;99.90
8402;DHT22;4238;48.404;9.498;2022-11-24T15:52:27;5.90;99.90
8402;DHT22;4238;48.404;9.498;2022-11-24T15:54:56;5.80;99.90
8402;DHT22;4238;48.404;9.498;2022-11-24T15:57:24;5.60;99.90
8402;DHT22;4238;48.404;9.498;2022-11-24T15:59:51;5.50;99.90
8402;DHT22;4238;48.404;9.498;2022-11-24T16:02:18;5.50;99.90
8402;DHT22;4238;48.404;9.498;2022-11-24T16:04:46;5.40;99.90
8402;DHT22;4238;48.404;9.498;2022-11-24T16:07:13;5.30;99.90
8402;DHT22;4238;48.404;9.498;2022-11-24T16:09:40;5.30;99.90
8402;DHT22;4238;48.404;9.498;2022-11-24T16:12:08;5.20;99.90
8402;DHT22;4238;48.404;9.498;2022-11-24T16:14:35;5.20;99.90
8402;DHT22;4238;48.404;9.498;2022-11-24T16:17:02;5.10;99.90
8402;DHT22;4238;48.404;9.498;2022-11-24T16:19:29;5.00;99.90
8402;DHT22;4238;48.404;9.498;2022-11-24T16:21:56;5.00;99.90
8402;DHT22;4238;48.404;9.498;2022-11-24T16:24:23;4.90;99.90
8402;DHT22;4238;48.404;9.498;2022-11-24T16:26:50;4.80;99.90
8402;DHT22;4238;48.404;9.498;2022-11-24T16:29:18;4.80;99.90
8402;DHT22;4238;48.404;9.498;2022-11-24T16:31:48;4.60;99.90
8402;DHT22;4238;48.404;9.498;2022-11-24T16:34:16;4.50;99.90
8402;DHT22;4238;48.404;9.498;2022-11-24T16:36:43;4.40;99.90
8402;DHT22;4238;48.404;9.498;2022-11-24T16:39:10;4.30;99.90
8402;DHT22;4238;48.404;9.498;2022-11-24T16:41:37;4.10;99.90
8402;DHT22;4238;48.404;9.498;2022-11-24T16:44:04;4.00;99.90
8402;DHT22;4238;48.404;9.498;2022-11-24T16:46:32;3.90;99.90
8402;DHT22;4238;48.404;9.498;2022-11-24T16:48:59;3.80;99.90
8402;DHT22;4238;48.404;9.498;2022-11-24T16:51:28;3.70;99.90
8402;DHT22;4238;48.404;9.498;2022-11-24T16:53:57;3.60;99.90